sensor_id;sensor_type;location;lat;lon;timestamp;temperature;humidity
20831;DHT22;10576;53.556;9.868;2023-08-08T00:00:25;13.20;99.90
20831;DHT22;10576;53.556;9.868;2023-08-08T00:10:09;13.10;99.90
20831;DHT22;10576;53.556;9.868;2023-08-08T00:15:01;13.00;99.90
20831;DHT22;10576;53.556;9.868;2023-08-08T00:17:27;12.90;99.90
20831;DHT22;10576;53.556;9.868;2023-08-08T00:19:53;12.90;99.90
20831;DHT22;10576;53.556;9.868;2023-08-08T00:22:19;12.90;99.90
20831;DHT22;10576;53.556;9.868;2023-08-08T00:27:10;12.90;99.90
20831;DHT22;10576;53.556;9.868;2023-08-08T00:29:36;12.90;99.90
20831;DHT22;10576;53.556;9.868;2023-08-08T00:32:01;12.80;99.90
20831;DHT22;10576;53.556;9.868;2023-08-08T00:34:28;12.80;99.90
20831;DHT22;10576;53.556;9.868;2023-08-08T00:39:19;12.80;99.90
20831;DHT22;10576;53.556;9.868;2023-08-08T00:41:45;13.00;99.90
20831;DHT22;10576;53.556;9.868;2023-08-08T00:44:10;12.70;99.90
20831;DHT22;10576;53.556;9.868;2023-08-08T00:46:36;12.80;99.90
20831;DHT22;10576;53.556;9.868;2023-08-08T00:51:28;12.80;99.90
20831;DHT22;10576;53.556;9.868;2023-08-08T00:53:54;12.10;99.90
20831;DHT22;10576;53.556;9.868;2023-08-08T00:56:20;12.60;99.90
20831;DHT22;10576;53.556;9.868;2023-08-08T01:03:38;12.80;99.90
20831;DHT22;10576;53.556;9.868;2023-08-08T01:06:11;12.70;99.90
20831;DHT22;10576;53.556;9.868;2023-08-08T01:09:01;12.70;99.90
20831;DHT22;10576;53.556;9.868;2023-08-08T01:11:30;12.70;99.90
20831;DHT22;10576;53.556;9.868;2023-08-08T01:13:58;12.80;99.90
20831;DHT22;10576;53.556;9.868;2023-08-08T01:16:26;12.80;99.90
20831;DHT22;10576;53.556;9.868;2023-08-08T01:18:52;12.70;99.90
20831;DHT22;10576;53.556;9.868;2023-08-08T01:28:53;12.60;99.90
20831;DHT22;10576;53.556;9.868;2023-08-08T01:36:22;12.60;99.90
20831;DHT22;10576;53.556;9.868;2023-08-08T01:43:45;12.70;99.90
20831;DHT22;10576;53.556;9.868;2023-08-08T01:46:11;12.60;99.90
20831;DHT22;10576;53.556;9.868;2023-08-08T01:48:36;12.50;99.90
20831;DHT22;10576;53.556;9.868;2023-08-08T02:22:43;12.50;99.90
20831;DHT22;10576;53.556;9.868;2023-08-08T02:25:09;12.50;99.90
20831;DHT22;10576;53.556;9.868;2023-08-08T02:27:34;12.50;99.90
20831;DHT22;10576;53.556;9.868;2023-08-08T02:34:52;12.60;99.90
20831;DHT22;10576;53.556;9.868;2023-08-08T02:37:17;12.60;99.90
20831;DHT22;10576;53.556;9.868;2023-08-08T02:39:44;12.50;99.90
20831;DHT22;10576;53.556;9.868;2023-08-08T02:42:09;12.60;99.90
20831;DHT22;10576;53.556;9.868;2023-08-08T02:44:35;12.60;99.90
20831;DHT22;10576;53.556;9.868;2023-08-08T02:51:54;12.60;99.90
20831;DHT22;10576;53.556;9.868;2023-08-08T03:04:05;12.60;99.90
20831;DHT22;10576;53.556;9.868;2023-08-08T03:06:31;12.50;99.90
20831;DHT22;10576;53.556;9.868;2023-08-08T03:08:57;12.50;99.90
20831;DHT22;10576;53.556;9.868;2023-08-08T03:13:48;12.60;99.90
20831;DHT22;10576;53.556;9.868;2023-08-08T04:05:02;12.60;99.90
20831;DHT22;10576;53.556;9.868;2023-08-08T04:07:28;12.60;99.90
20831;DHT22;10576;53.556;9.868;2023-08-08T04:09:53;12.60;99.90
20831;DHT22;10576;53.556;9.868;2023-08-08T04:34:13;12.50;99.90
20831;DHT22;10576;53.556;9.868;2023-08-08T04:36:39;12.50;99.90
20831;DHT22;10576;53.556;9.868;2023-08-08T04:41:31;12.50;99.90
20831;DHT22;10576;53.556;9.868;2023-08-08T04:58:33;12.60;99.90
20831;DHT22;10576;53.556;9.868;2023-08-08T05:00:58;12.60;99.90
20831;DHT22;10576;53.556;9.868;2023-08-08T05:05:50;12.70;99.90
20831;DHT22;10576;53.556;9.868;2023-08-08T05:10:43;12.90;99.90
20831;DHT22;10576;53.556;9.868;2023-08-08T05:30:13;13.30;99.90
20831;DHT22;10576;53.556;9.868;2023-08-08T05:35:05;13.40;99.90
20831;DHT22;10576;53.556;9.868;2023-08-08T05:52:08;14.40;99.90
20831;DHT22;10576;53.556;9.868;2023-08-08T06:14:02;14.20;99.90
20831;DHT22;10576;53.556;9.868;2023-08-08T06:16:28;14.20;99.90
20831;DHT22;10576;53.556;9.868;2023-08-08T06:21:19;14.30;99.90
20831;DHT22;10576;53.556;9.868;2023-08-08T06:26:13;14.30;99.90
20831;DHT22;10576;53.556;9.868;2023-08-08T06:33:32;14.60;99.90
20831;DHT22;10576;53.556;9.868;2023-08-08T06:43:17;14.50;99.90
20831;DHT22;10576;53.556;9.868;2023-08-08T06:55:26;15.10;99.90
20831;DHT22;10576;53.556;9.868;2023-08-08T07:00:18;15.30;99.90
20831;DHT22;10576;53.556;9.868;2023-08-08T07:02:44;15.20;99.90
20831;DHT22;10576;53.556;9.868;2023-08-08T07:05:09;15.20;99.90
20831;DHT22;10576;53.556;9.868;2023-08-08T07:07:35;15.10;99.90
20831;DHT22;10576;53.556;9.868;2023-08-08T07:12:29;15.20;99.90
20831;DHT22;10576;53.556;9.868;2023-08-08T07:14:56;15.40;99.90
20831;DHT22;10576;53.556;9.868;2023-08-08T07:17:22;15.50;99.90
20831;DHT22;10576;53.556;9.868;2023-08-08T07:24:40;15.70;99.90
20831;DHT22;10576;53.556;9.868;2023-08-08T07:27:05;15.50;99.90
20831;DHT22;10576;53.556;9.868;2023-08-08T07:29:31;15.60;99.90
20831;DHT22;10576;53.556;9.868;2023-08-08T07:31:57;15.50;99.90
20831;DHT22;10576;53.556;9.868;2023-08-08T07:34:23;15.60;99.90
20831;DHT22;10576;53.556;9.868;2023-08-08T07:36:50;15.70;99.90
20831;DHT22;10576;53.556;9.868;2023-08-08T07:39:16;15.90;99.90
20831;DHT22;10576;53.556;9.868;2023-08-08T07:41:41;16.10;99.90
20831;DHT22;10576;53.556;9.868;2023-08-08T07:44:07;16.30;99.90
20831;DHT22;10576;53.556;9.868;2023-08-08T07:46:33;16.10;99.90
20831;DHT22;10576;53.556;9.868;2023-08-08T07:48:58;16.30;99.90
20831;DHT22;10576;53.556;9.868;2023-08-08T07:51:28;16.40;99.90
20831;DHT22;10576;53.556;9.868;2023-08-08T07:53:54;16.40;99.90
20831;DHT22;10576;53.556;9.868;2023-08-08T07:56:20;16.40;99.90
20831;DHT22;10576;53.556;9.868;2023-08-08T07:58:45;16.20;99.90
20831;DHT22;10576;53.556;9.868;2023-08-08T08:01:11;16.30;99.90
20831;DHT22;10576;53.556;9.868;2023-08-08T08:03:39;16.30;99.90
20831;DHT22;10576;53.556;9.868;2023-08-08T08:06:05;16.40;99.90
20831;DHT22;10576;53.556;9.868;2023-08-08T08:08:30;16.30;99.90
20831;DHT22;10576;53.556;9.868;2023-08-08T08:10:56;16.30;99.90
20831;DHT22;10576;53.556;9.868;2023-08-08T08:13:22;16.20;99.90
20831;DHT22;10576;53.556;9.868;2023-08-08T08:15:47;15.90;99.90
20831;DHT22;10576;53.556;9.868;2023-08-08T08:18:13;15.80;99.90
20831;DHT22;10576;53.556;9.868;2023-08-08T08:20:42;15.90;99.90
20831;DHT22;10576;53.556;9.868;2023-08-08T08:23:09;15.90;99.90
20831;DHT22;10576;53.556;9.868;2023-08-08T08:25:34;15.90;99.90
20831;DHT22;10576;53.556;9.868;2023-08-08T08:28:00;15.80;99.90
20831;DHT22;10576;53.556;9.868;2023-08-08T08:30:26;15.80;99.90
20831;DHT22;10576;53.556;9.868;2023-08-08T08:32:52;15.90;99.90
20831;DHT22;10576;53.556;9.868;2023-08-08T08:35:18;15.80;99.90
20831;DHT22;10576;53.556;9.868;2023-08-08T08:37:44;15.80;99.90
20831;DHT22;10576;53.556;9.868;2023-08-08T08:40:10;15.80;99.90
20831;DHT22;10576;53.556;9.868;2023-08-08T08:42:35;15.70;99.90
20831;DHT22;10576;53.556;9.868;2023-08-08T08:45:03;15.70;99.90
20831;DHT22;10576;53.556;9.868;2023-08-08T08:47:31;15.80;99.90
20831;DHT22;10576;53.556;9.868;2023-08-08T08:49:57;16.00;99.90
20831;DHT22;10576;53.556;9.868;2023-08-08T08:52:23;16.40;99.90
20831;DHT22;10576;53.556;9.868;2023-08-08T08:54:53;16.70;99.90
20831;DHT22;10576;53.556;9.868;2023-08-08T08:57:21;17.00;99.90
20831;DHT22;10576;53.556;9.868;2023-08-08T08:59:49;17.00;99.90
20831;DHT22;10576;53.556;9.868;2023-08-08T09:02:15;16.90;99.90
20831;DHT22;10576;53.556;9.868;2023-08-08T09:04:41;16.50;99.90
20831;DHT22;10576;53.556;9.868;2023-08-08T09:07:08;16.40;99.90
20831;DHT22;10576;53.556;9.868;2023-08-08T09:09:34;16.30;99.90
20831;DHT22;10576;53.556;9.868;2023-08-08T09:12:03;16.20;99.90
20831;DHT22;10576;53.556;9.868;2023-08-08T09:14:30;16.30;99.90
20831;DHT22;10576;53.556;9.868;2023-08-08T09:16:55;16.30;99.90
20831;DHT22;10576;53.556;9.868;2023-08-08T09:19:23;16.30;99.90
20831;DHT22;10576;53.556;9.868;2023-08-08T09:21:50;16.40;99.90
20831;DHT22;10576;53.556;9.868;2023-08-08T09:24:16;16.30;99.90
20831;DHT22;10576;53.556;9.868;2023-08-08T09:26:43;16.30;99.90
20831;DHT22;10576;53.556;9.868;2023-08-08T09:29:11;16.30;99.90
20831;DHT22;10576;53.556;9.868;2023-08-08T09:31:36;16.40;99.90
20831;DHT22;10576;53.556;9.868;2023-08-08T09:34:04;16.30;99.90
20831;DHT22;10576;53.556;9.868;2023-08-08T09:36:30;16.40;99.90
20831;DHT22;10576;53.556;9.868;2023-08-08T09:38:56;16.50;99.90
20831;DHT22;10576;53.556;9.868;2023-08-08T09:41:23;16.30;99.90
20831;DHT22;10576;53.556;9.868;2023-08-08T09:43:50;16.20;99.90
20831;DHT22;10576;53.556;9.868;2023-08-08T09:46:18;16.20;99.90
20831;DHT22;10576;53.556;9.868;2023-08-08T09:48:44;16.00;99.90
20831;DHT22;10576;53.556;9.868;2023-08-08T09:51:10;16.00;99.90
20831;DHT22;10576;53.556;9.868;2023-08-08T09:53:37;16.00;99.90
20831;DHT22;10576;53.556;9.868;2023-08-08T09:56:04;16.10;99.90
20831;DHT22;10576;53.556;9.868;2023-08-08T09:58:31;16.20;99.90
20831;DHT22;10576;53.556;9.868;2023-08-08T10:00:56;16.10;99.90
20831;DHT22;10576;53.556;9.868;2023-08-08T10:03:22;15.70;99.90
20831;DHT22;10576;53.556;9.868;2023-08-08T10:05:48;15.80;99.90
20831;DHT22;10576;53.556;9.868;2023-08-08T10:08:18;15.60;99.90
20831;DHT22;10576;53.556;9.868;2023-08-08T10:10:46;15.50;99.90
20831;DHT22;10576;53.556;9.868;2023-08-08T10:13:25;15.40;99.90
20831;DHT22;10576;53.556;9.868;2023-08-08T10:15:52;15.30;99.90
20831;DHT22;10576;53.556;9.868;2023-08-08T10:18:21;15.10;99.90
20831;DHT22;10576;53.556;9.868;2023-08-08T10:20:48;15.10;99.90
20831;DHT22;10576;53.556;9.868;2023-08-08T10:23:18;15.00;99.90
20831;DHT22;10576;53.556;9.868;2023-08-08T10:25:46;14.80;99.90
20831;DHT22;10576;53.556;9.868;2023-08-08T10:28:14;14.70;99.90
20831;DHT22;10576;53.556;9.868;2023-08-08T10:33:20;14.60;99.90
20831;DHT22;10576;53.556;9.868;2023-08-08T10:36:03;14.40;99.90
20831;DHT22;10576;53.556;9.868;2023-08-08T10:38:46;14.60;99.90
20831;DHT22;10576;53.556;9.868;2023-08-08T10:41:21;14.80;99.90
20831;DHT22;10576;53.556;9.868;2023-08-08T10:43:57;14.90;99.90
20831;DHT22;10576;53.556;9.868;2023-08-08T10:46:31;15.10;99.90
20831;DHT22;10576;53.556;9.868;2023-08-08T10:48:58;15.40;99.90
20831;DHT22;10576;53.556;9.868;2023-08-08T10:51:38;15.50;99.90
20831;DHT22;10576;53.556;9.868;2023-08-08T10:56:40;15.30;99.90
20831;DHT22;10576;53.556;9.868;2023-08-08T10:59:17;15.00;99.90
20831;DHT22;10576;53.556;9.868;2023-08-08T11:01:48;14.70;99.90
20831;DHT22;10576;53.556;9.868;2023-08-08T11:04:15;14.60;99.90
20831;DHT22;10576;53.556;9.868;2023-08-08T11:06:41;14.60;99.90
20831;DHT22;10576;53.556;9.868;2023-08-08T11:09:07;14.40;99.90
20831;DHT22;10576;53.556;9.868;2023-08-08T11:11:40;14.70;99.90
20831;DHT22;10576;53.556;9.868;2023-08-08T11:14:17;14.60;99.90
20831;DHT22;10576;53.556;9.868;2023-08-08T11:16:43;14.70;99.90
20831;DHT22;10576;53.556;9.868;2023-08-08T11:19:11;14.40;99.90
20831;DHT22;10576;53.556;9.868;2023-08-08T11:21:45;14.40;99.90
20831;DHT22;10576;53.556;9.868;2023-08-08T11:24:11;13.20;99.90
20831;DHT22;10576;53.556;9.868;2023-08-08T11:26:40;14.30;99.90
20831;DHT22;10576;53.556;9.868;2023-08-08T11:29:06;14.30;99.90
20831;DHT22;10576;53.556;9.868;2023-08-08T11:31:34;14.20;99.90
20831;DHT22;10576;53.556;9.868;2023-08-08T11:33:59;14.20;99.90
20831;DHT22;10576;53.556;9.868;2023-08-08T11:36:29;14.90;99.90
20831;DHT22;10576;53.556;9.868;2023-08-08T11:38:54;15.20;99.90
20831;DHT22;10576;53.556;9.868;2023-08-08T11:41:23;15.60;99.90
20831;DHT22;10576;53.556;9.868;2023-08-08T11:43:50;15.90;99.90
20831;DHT22;10576;53.556;9.868;2023-08-08T11:46:17;15.90;99.90
20831;DHT22;10576;53.556;9.868;2023-08-08T11:48:46;15.70;99.90
20831;DHT22;10576;53.556;9.868;2023-08-08T11:51:14;15.50;99.90
20831;DHT22;10576;53.556;9.868;2023-08-08T11:53:54;15.10;99.90
20831;DHT22;10576;53.556;9.868;2023-08-08T11:56:20;15.10;99.90
20831;DHT22;10576;53.556;9.868;2023-08-08T11:58:50;14.80;99.90
20831;DHT22;10576;53.556;9.868;2023-08-08T12:01:24;15.20;99.90
20831;DHT22;10576;53.556;9.868;2023-08-08T12:03:50;15.30;99.90
20831;DHT22;10576;53.556;9.868;2023-08-08T12:06:16;15.40;99.90
20831;DHT22;10576;53.556;9.868;2023-08-08T12:08:46;15.50;99.90
20831;DHT22;10576;53.556;9.868;2023-08-08T12:11:14;15.50;99.90
20831;DHT22;10576;53.556;9.868;2023-08-08T12:13:44;15.90;99.90
20831;DHT22;10576;53.556;9.868;2023-08-08T12:16:11;15.40;99.90
20831;DHT22;10576;53.556;9.868;2023-08-08T12:18:37;16.10;99.90
20831;DHT22;10576;53.556;9.868;2023-08-08T12:21:10;16.00;99.90
20831;DHT22;10576;53.556;9.868;2023-08-08T12:23:36;16.10;99.90
20831;DHT22;10576;53.556;9.868;2023-08-08T12:26:06;16.30;99.90
20831;DHT22;10576;53.556;9.868;2023-08-08T12:28:33;16.90;99.90
20831;DHT22;10576;53.556;9.868;2023-08-08T12:30:59;17.30;99.90
20831;DHT22;10576;53.556;9.868;2023-08-08T12:33:24;17.30;99.90
20831;DHT22;10576;53.556;9.868;2023-08-08T12:35:50;17.60;99.90
20831;DHT22;10576;53.556;9.868;2023-08-08T12:38:16;17.60;99.90
20831;DHT22;10576;53.556;9.868;2023-08-08T12:40:42;17.80;99.90
20831;DHT22;10576;53.556;9.868;2023-08-08T12:43:09;17.90;99.90
20831;DHT22;10576;53.556;9.868;2023-08-08T12:45:39;17.90;99.90
20831;DHT22;10576;53.556;9.868;2023-08-08T12:48:05;18.30;99.90
20831;DHT22;10576;53.556;9.868;2023-08-08T12:50:31;18.40;99.90
20831;DHT22;10576;53.556;9.868;2023-08-08T12:52:57;18.60;99.90
20831;DHT22;10576;53.556;9.868;2023-08-08T12:55:23;18.50;99.90
20831;DHT22;10576;53.556;9.868;2023-08-08T13:00:15;17.70;99.90
20831;DHT22;10576;53.556;9.868;2023-08-08T13:02:41;14.80;99.90
20831;DHT22;10576;53.556;9.868;2023-08-08T13:05:07;16.30;99.90
20831;DHT22;10576;53.556;9.868;2023-08-08T13:07:33;16.10;99.90
20831;DHT22;10576;53.556;9.868;2023-08-08T13:09:59;15.50;99.90
20831;DHT22;10576;53.556;9.868;2023-08-08T13:12:24;15.20;99.90
20831;DHT22;10576;53.556;9.868;2023-08-08T13:14:50;15.30;99.90
20831;DHT22;10576;53.556;9.868;2023-08-08T13:17:16;15.50;99.90
20831;DHT22;10576;53.556;9.868;2023-08-08T13:19:41;15.70;99.90
20831;DHT22;10576;53.556;9.868;2023-08-08T13:22:07;15.90;99.90
20831;DHT22;10576;53.556;9.868;2023-08-08T13:26:59;16.70;99.90
20831;DHT22;10576;53.556;9.868;2023-08-08T13:29:24;16.80;99.90
20831;DHT22;10576;53.556;9.868;2023-08-08T13:31:50;17.00;99.90
20831;DHT22;10576;53.556;9.868;2023-08-08T13:34:16;17.00;99.90
20831;DHT22;10576;53.556;9.868;2023-08-08T13:41:35;16.50;99.90
20831;DHT22;10576;53.556;9.868;2023-08-08T13:44:01;16.40;99.90
20831;DHT22;10576;53.556;9.868;2023-08-08T13:46:26;16.20;99.90
20831;DHT22;10576;53.556;9.868;2023-08-08T14:37:35;15.10;99.90
20831;DHT22;10576;53.556;9.868;2023-08-08T14:40:02;15.30;99.90
20831;DHT22;10576;53.556;9.868;2023-08-08T14:42:28;15.20;99.90
20831;DHT22;10576;53.556;9.868;2023-08-08T14:47:20;15.20;99.90
20831;DHT22;10576;53.556;9.868;2023-08-08T14:49:45;15.50;99.90
20831;DHT22;10576;53.556;9.868;2023-08-08T14:52:12;15.40;99.90
20831;DHT22;10576;53.556;9.868;2023-08-08T14:54:38;15.50;99.90
20831;DHT22;10576;53.556;9.868;2023-08-08T14:57:05;15.50;99.90
20831;DHT22;10576;53.556;9.868;2023-08-08T14:59:30;15.50;99.90
20831;DHT22;10576;53.556;9.868;2023-08-08T15:01:56;15.50;99.90
20831;DHT22;10576;53.556;9.868;2023-08-08T15:04:22;15.50;99.90
20831;DHT22;10576;53.556;9.868;2023-08-08T15:18:58;15.40;99.90
20831;DHT22;10576;53.556;9.868;2023-08-08T15:31:11;14.90;99.90
20831;DHT22;10576;53.556;9.868;2023-08-08T15:36:04;15.00;99.90
20831;DHT22;10576;53.556;9.868;2023-08-08T15:38:30;14.60;99.90
20831;DHT22;10576;53.556;9.868;2023-08-08T15:40:56;14.50;99.90
20831;DHT22;10576;53.556;9.868;2023-08-08T15:43:21;14.50;99.90
20831;DHT22;10576;53.556;9.868;2023-08-08T15:48:14;14.30;99.90
20831;DHT22;10576;53.556;9.868;2023-08-08T15:53:07;14.10;99.90
20831;DHT22;10576;53.556;9.868;2023-08-08T16:12:39;13.80;99.90
20831;DHT22;10576;53.556;9.868;2023-08-08T16:15:06;13.70;99.90
20831;DHT22;10576;53.556;9.868;2023-08-08T16:22:26;13.60;99.90
20831;DHT22;10576;53.556;9.868;2023-08-08T16:24:51;14.20;99.90
20831;DHT22;10576;53.556;9.868;2023-08-08T16:41:54;13.50;99.90
20831;DHT22;10576;53.556;9.868;2023-08-08T16:56:35;13.90;99.90
20831;DHT22;10576;53.556;9.868;2023-08-08T16:59:01;13.90;99.90
20831;DHT22;10576;53.556;9.868;2023-08-08T17:01:27;13.90;99.90
20831;DHT22;10576;53.556;9.868;2023-08-08T17:13:38;13.90;99.90
20831;DHT22;10576;53.556;9.868;2023-08-08T17:16:04;13.90;99.90
20831;DHT22;10576;53.556;9.868;2023-08-08T17:23:23;13.90;99.90
20831;DHT22;10576;53.556;9.868;2023-08-08T17:25:48;13.80;99.90
20831;DHT22;10576;53.556;9.868;2023-08-08T17:35:33;13.90;99.90
20831;DHT22;10576;53.556;9.868;2023-08-08T17:37:59;13.80;99.90
20831;DHT22;10576;53.556;9.868;2023-08-08T17:40:24;14.00;99.90
20831;DHT22;10576;53.556;9.868;2023-08-08T17:59:52;13.80;99.90
20831;DHT22;10576;53.556;9.868;2023-08-08T18:19:22;13.60;99.90
20831;DHT22;10576;53.556;9.868;2023-08-08T18:24:15;13.60;99.90
20831;DHT22;10576;53.556;9.868;2023-08-08T18:34:00;13.30;99.90
20831;DHT22;10576;53.556;9.868;2023-08-08T18:36:26;13.50;99.90
20831;DHT22;10576;53.556;9.868;2023-08-08T18:38:52;13.50;99.90
20831;DHT22;10576;53.556;9.868;2023-08-08T18:41:18;13.50;99.90
20831;DHT22;10576;53.556;9.868;2023-08-08T19:27:33;13.20;99.90
20831;DHT22;10576;53.556;9.868;2023-08-08T19:42:10;13.00;99.90
20831;DHT22;10576;53.556;9.868;2023-08-08T19:54:20;12.70;99.90
20831;DHT22;10576;53.556;9.868;2023-08-08T19:56:46;12.80;99.90
20831;DHT22;10576;53.556;9.868;2023-08-08T19:59:12;12.80;99.90
20831;DHT22;10576;53.556;9.868;2023-08-08T20:04:04;13.00;99.90
20831;DHT22;10576;53.556;9.868;2023-08-08T20:06:31;13.10;99.90
20831;DHT22;10576;53.556;9.868;2023-08-08T20:08:56;13.10;99.90
20831;DHT22;10576;53.556;9.868;2023-08-08T20:11:22;13.10;99.90
20831;DHT22;10576;53.556;9.868;2023-08-08T20:13:48;13.00;99.90
20831;DHT22;10576;53.556;9.868;2023-08-08T20:18:40;13.10;99.90
20831;DHT22;10576;53.556;9.868;2023-08-08T20:28:24;13.30;99.90
20831;DHT22;10576;53.556;9.868;2023-08-08T20:33:16;13.30;99.90
20831;DHT22;10576;53.556;9.868;2023-08-08T20:52:46;13.20;99.90
20831;DHT22;10576;53.556;9.868;2023-08-08T20:57:38;13.10;99.90
20831;DHT22;10576;53.556;9.868;2023-08-08T21:00:04;13.10;99.90
20831;DHT22;10576;53.556;9.868;2023-08-08T21:02:30;13.20;99.90
20831;DHT22;10576;53.556;9.868;2023-08-08T21:07:22;13.10;99.90
20831;DHT22;10576;53.556;9.868;2023-08-08T21:09:47;13.10;99.90
20831;DHT22;10576;53.556;9.868;2023-08-08T21:12:13;13.00;99.90
20831;DHT22;10576;53.556;9.868;2023-08-08T21:14:39;13.00;99.90
20831;DHT22;10576;53.556;9.868;2023-08-08T21:17:05;13.10;99.90
20831;DHT22;10576;53.556;9.868;2023-08-08T21:19:30;13.10;99.90
20831;DHT22;10576;53.556;9.868;2023-08-08T21:21:56;13.00;99.90
20831;DHT22;10576;53.556;9.868;2023-08-08T21:24:23;13.00;99.90
20831;DHT22;10576;53.556;9.868;2023-08-08T21:26:49;13.00;99.90
20831;DHT22;10576;53.556;9.868;2023-08-08T21:31:41;12.90;99.90
20831;DHT22;10576;53.556;9.868;2023-08-08T21:34:07;13.00;99.90
20831;DHT22;10576;53.556;9.868;2023-08-08T21:36:32;13.10;99.90
20831;DHT22;10576;53.556;9.868;2023-08-08T21:38:59;13.00;99.90
20831;DHT22;10576;53.556;9.868;2023-08-08T21:41:25;13.00;99.90
20831;DHT22;10576;53.556;9.868;2023-08-08T21:43:51;12.90;99.90
20831;DHT22;10576;53.556;9.868;2023-08-08T21:46:17;12.80;99.90
20831;DHT22;10576;53.556;9.868;2023-08-08T21:48:42;12.90;99.90
20831;DHT22;10576;53.556;9.868;2023-08-08T21:51:08;12.80;99.90
20831;DHT22;10576;53.556;9.868;2023-08-08T21:53:36;12.70;99.90
20831;DHT22;10576;53.556;9.868;2023-08-08T21:56:02;12.60;99.90
20831;DHT22;10576;53.556;9.868;2023-08-08T21:58:28;12.60;99.90
20831;DHT22;10576;53.556;9.868;2023-08-08T22:00:53;12.50;99.90
20831;DHT22;10576;53.556;9.868;2023-08-08T22:03:19;12.50;99.90
20831;DHT22;10576;53.556;9.868;2023-08-08T22:05:45;12.40;99.90
20831;DHT22;10576;53.556;9.868;2023-08-08T22:13:04;12.30;99.90
20831;DHT22;10576;53.556;9.868;2023-08-08T22:15:31;12.50;99.90
20831;DHT22;10576;53.556;9.868;2023-08-08T22:17:58;12.40;99.90
20831;DHT22;10576;53.556;9.868;2023-08-08T22:20:28;12.50;99.90
20831;DHT22;10576;53.556;9.868;2023-08-08T22:22:54;12.30;99.90
20831;DHT22;10576;53.556;9.868;2023-08-08T22:25:20;12.30;99.90
20831;DHT22;10576;53.556;9.868;2023-08-08T22:27:45;12.20;99.90
20831;DHT22;10576;53.556;9.868;2023-08-08T22:30:11;12.30;99.90
20831;DHT22;10576;53.556;9.868;2023-08-08T22:32:37;12.10;99.90
20831;DHT22;10576;53.556;9.868;2023-08-08T22:35:03;12.10;99.90
20831;DHT22;10576;53.556;9.868;2023-08-08T22:37:29;12.20;99.90
20831;DHT22;10576;53.556;9.868;2023-08-08T22:39:54;12.10;99.90
20831;DHT22;10576;53.556;9.868;2023-08-08T22:42:20;12.00;99.90
20831;DHT22;10576;53.556;9.868;2023-08-08T22:44:46;12.00;99.90
20831;DHT22;10576;53.556;9.868;2023-08-08T22:47:11;12.10;99.90
20831;DHT22;10576;53.556;9.868;2023-08-08T22:49:37;12.00;99.90
20831;DHT22;10576;53.556;9.868;2023-08-08T22:52:02;12.10;99.90
20831;DHT22;10576;53.556;9.868;2023-08-08T22:54:28;12.00;99.90
20831;DHT22;10576;53.556;9.868;2023-08-08T22:59:20;11.90;99.90
20831;DHT22;10576;53.556;9.868;2023-08-08T23:01:45;11.90;99.90
20831;DHT22;10576;53.556;9.868;2023-08-08T23:04:11;12.00;99.90
20831;DHT22;10576;53.556;9.868;2023-08-08T23:06:36;11.90;99.90
20831;DHT22;10576;53.556;9.868;2023-08-08T23:09:02;11.90;99.90
20831;DHT22;10576;53.556;9.868;2023-08-08T23:11:28;11.80;99.90
20831;DHT22;10576;53.556;9.868;2023-08-08T23:18:46;11.80;99.90
20831;DHT22;10576;53.556;9.868;2023-08-08T23:21:11;11.80;99.90
20831;DHT22;10576;53.556;9.868;2023-08-08T23:23:37;11.70;99.90
20831;DHT22;10576;53.556;9.868;2023-08-08T23:35:50;11.70;99.90
20831;DHT22;10576;53.556;9.868;2023-08-08T23:38:16;11.60;99.90
20831;DHT22;10576;53.556;9.868;2023-08-08T23:40:42;11.60;99.90
20831;DHT22;10576;53.556;9.868;2023-08-08T23:43:08;11.60;99.90
20831;DHT22;10576;53.556;9.868;2023-08-08T23:50:26;11.50;99.90
20831;DHT22;10576;53.556;9.868;2023-08-08T23:52:52;11.50;99.90
20831;DHT22;10576;53.556;9.868;2023-08-08T23:57:44;11.60;99.90
